createdAt,value
2022-12-13T00:01:47.497Z,67.90
2022-12-13T00:04:16.063Z,67.90
2022-12-13T00:06:44.869Z,68.00
2022-12-13T00:09:15.321Z,67.90
2022-12-13T00:11:43.948Z,67.90
2022-12-13T00:14:14.199Z,67.90
2022-12-13T00:16:46.697Z,67.90
2022-12-13T00:19:15.542Z,67.90
2022-12-13T00:21:43.759Z,67.90
2022-12-13T00:24:12.051Z,67.90
2022-12-13T00:26:41.698Z,67.90
2022-12-13T00:29:10.017Z,67.90
2022-12-13T00:31:59.969Z,67.80
2022-12-13T00:34:27.162Z,67.90
2022-12-13T00:36:55.883Z,67.90
2022-12-13T00:39:24.041Z,67.90
2022-12-13T00:41:53.663Z,67.90
2022-12-13T00:44:21.943Z,67.90
2022-12-13T00:46:51.836Z,67.90
2022-12-13T00:49:20.926Z,67.80
2022-12-13T00:51:49.790Z,67.90
2022-12-13T00:54:18.645Z,67.80
2022-12-13T00:56:46.859Z,67.80
2022-12-13T00:59:16.852Z,67.90
2022-12-13T01:01:45.582Z,67.80
2022-12-13T01:04:14.534Z,67.80
2022-12-13T01:06:45.172Z,67.80
2022-12-13T01:09:19.172Z,67.90
2022-12-13T01:11:48.275Z,67.90
2022-12-13T01:14:18.700Z,67.90
2022-12-13T01:16:47.216Z,67.80
2022-12-13T01:19:15.577Z,67.80
2022-12-13T01:21:43.879Z,67.80
2022-12-13T01:24:12.229Z,67.80
2022-12-13T01:26:40.343Z,67.90
2022-12-13T01:29:09.102Z,67.80
2022-12-13T01:31:41.504Z,67.80
2022-12-13T01:34:11.413Z,67.80
2022-12-13T01:36:40.637Z,67.80
2022-12-13T01:39:15.293Z,67.80
2022-12-13T01:41:45.590Z,67.80
2022-12-13T01:44:50.876Z,67.80
2022-12-13T01:47:25.877Z,67.80
2022-12-13T01:49:57.441Z,67.80
2022-12-13T01:52:29.878Z,67.80
2022-12-13T01:55:03.553Z,67.80
2022-12-13T01:57:34.256Z,67.80
2022-12-13T02:00:03.695Z,67.90
2022-12-13T02:02:33.335Z,67.80
2022-12-13T02:05:06.940Z,67.80
2022-12-13T02:07:37.859Z,67.80
2022-12-13T02:10:08.751Z,67.90
2022-12-13T02:12:38.874Z,67.80
2022-12-13T02:15:11.776Z,67.80
2022-12-13T02:17:53.241Z,67.80
2022-12-13T02:20:47.820Z,67.80
2022-12-13T02:23:39.698Z,67.80
2022-12-13T02:26:31.160Z,67.80
2022-12-13T02:29:30.059Z,67.80
2022-12-13T02:32:04.398Z,67.80
2022-12-13T02:34:38.975Z,67.80
2022-12-13T02:37:17.460Z,67.80
2022-12-13T02:39:52.473Z,67.80
2022-12-13T02:42:25.181Z,67.80
2022-12-13T02:44:58.598Z,67.80
2022-12-13T02:47:32.108Z,67.80
2022-12-13T02:50:04.232Z,67.80
2022-12-13T02:52:33.661Z,67.70
2022-12-13T02:55:01.898Z,67.70
2022-12-13T02:57:33.546Z,67.70
2022-12-13T03:00:06.271Z,67.70
2022-12-13T03:02:52.042Z,67.70
2022-12-13T03:05:46.839Z,67.70
2022-12-13T03:08:23.929Z,67.80
2022-12-13T03:11:03.428Z,67.70
2022-12-13T03:13:38.544Z,67.70
2022-12-13T03:16:14.516Z,68.40
2022-12-13T03:18:54.067Z,67.70
2022-12-13T03:21:22.522Z,67.70
2022-12-13T03:23:50.829Z,67.80
2022-12-13T03:26:22.847Z,67.70
2022-12-13T03:28:51.932Z,67.80
2022-12-13T03:31:20.667Z,67.80
2022-12-13T03:33:48.954Z,67.80
2022-12-13T03:36:19.937Z,67.70
2022-12-13T03:38:52.360Z,67.70
2022-12-13T03:41:23.049Z,67.80
2022-12-13T03:43:51.814Z,67.80
2022-12-13T03:46:19.964Z,67.80
2022-12-13T03:48:48.181Z,67.70
2022-12-13T03:51:16.381Z,67.70
2022-12-13T03:53:45.985Z,67.70
2022-12-13T03:56:14.405Z,67.70
2022-12-13T03:58:43.292Z,67.70
2022-12-13T04:01:14.211Z,67.70
2022-12-13T04:03:43.978Z,67.70
2022-12-13T04:06:12.516Z,67.70
2022-12-13T04:08:52.444Z,67.70
2022-12-13T04:11:42.894Z,67.70
2022-12-13T04:14:12.294Z,67.70
2022-12-13T04:16:51.344Z,67.70
2022-12-13T04:19:23.389Z,67.70
2022-12-13T04:21:54.260Z,67.70
2022-12-13T04:24:31.409Z,67.80
2022-12-13T04:27:01.433Z,67.80
2022-12-13T04:29:34.143Z,67.80
2022-12-13T04:32:03.314Z,67.90
2022-12-13T04:34:36.808Z,67.90
2022-12-13T04:37:06.086Z,68.00
2022-12-13T04:39:35.703Z,68.00
2022-12-13T04:42:05.799Z,68.00
2022-12-13T04:44:37.012Z,68.00
2022-12-13T04:47:06.161Z,68.00
2022-12-13T04:49:35.026Z,68.00
2022-12-13T04:52:04.078Z,68.00
2022-12-13T04:54:36.079Z,68.10
2022-12-13T04:57:08.298Z,68.10
2022-12-13T04:59:36.959Z,68.10
2022-12-13T05:02:06.268Z,68.10
2022-12-13T05:04:34.633Z,68.20
2022-12-13T05:07:03.191Z,68.20
2022-12-13T05:09:31.484Z,68.20
2022-12-13T05:12:01.479Z,68.20
2022-12-13T05:14:32.326Z,68.30
2022-12-13T05:17:01.006Z,68.20
2022-12-13T05:19:31.398Z,68.30
2022-12-13T05:22:01.578Z,68.30
2022-12-13T05:24:31.494Z,68.30
2022-12-13T05:27:00.213Z,68.30
2022-12-13T05:29:28.558Z,68.30
2022-12-13T05:31:58.289Z,68.40
2022-12-13T05:34:26.546Z,68.40
2022-12-13T05:36:55.046Z,68.40
2022-12-13T05:39:28.125Z,68.40
2022-12-13T05:42:01.303Z,68.40
2022-12-13T05:44:31.514Z,68.40
2022-12-13T05:47:01.809Z,68.50
2022-12-13T05:49:30.564Z,68.50
2022-12-13T05:51:58.855Z,68.50
2022-12-13T05:54:27.083Z,68.50
2022-12-13T05:56:55.293Z,68.50
2022-12-13T05:59:23.543Z,68.50
2022-12-13T06:01:51.939Z,68.50
2022-12-13T06:04:23.149Z,68.50
2022-12-13T06:06:52.073Z,68.50
2022-12-13T06:09:20.361Z,68.50
2022-12-13T06:11:48.837Z,68.50
2022-12-13T06:14:21.820Z,68.50
2022-12-13T06:16:51.772Z,68.50
2022-12-13T06:19:21.850Z,68.50
2022-12-13T06:21:50.147Z,68.50
2022-12-13T06:24:19.543Z,68.50
2022-12-13T06:26:48.306Z,68.50
2022-12-13T06:29:23.734Z,68.40
2022-12-13T06:32:02.499Z,68.40
2022-12-13T06:34:35.721Z,68.40
2022-12-13T06:37:06.980Z,68.40
2022-12-13T06:39:35.972Z,68.40
2022-12-13T06:42:06.305Z,68.40
2022-12-13T06:44:35.028Z,68.40
2022-12-13T06:47:10.296Z,68.30
2022-12-13T06:49:44.219Z,68.30
2022-12-13T06:52:14.617Z,68.30
2022-12-13T06:54:43.597Z,68.20
2022-12-13T06:57:12.541Z,68.20
2022-12-13T06:59:41.636Z,68.10
2022-12-13T07:02:24.499Z,68.70
2022-12-13T07:04:56.202Z,68.00
2022-12-13T07:07:25.766Z,68.00
2022-12-13T07:09:54.290Z,68.00
2022-12-13T07:12:22.680Z,68.00
2022-12-13T07:14:51.015Z,67.90
2022-12-13T07:17:34.059Z,67.90
2022-12-13T07:20:08.469Z,67.90
2022-12-13T07:22:44.952Z,67.90
2022-12-13T07:25:27.503Z,67.90
2022-12-13T07:28:02.243Z,67.80
2022-12-13T07:30:32.161Z,67.80
2022-12-13T07:33:00.585Z,67.60
2022-12-13T07:35:30.581Z,67.70
2022-12-13T07:37:59.078Z,67.70
2022-12-13T07:40:27.611Z,67.80
2022-12-13T07:42:57.112Z,68.00
2022-12-13T07:45:25.561Z,68.10
2022-12-13T07:47:54.114Z,68.10
2022-12-13T07:50:25.083Z,68.20
2022-12-13T07:52:55.221Z,68.30
2022-12-13T07:55:33.338Z,68.20
2022-12-13T07:58:09.721Z,68.30
2022-12-13T08:00:38.432Z,68.30
2022-12-13T08:03:07.384Z,68.40
2022-12-13T08:05:38.736Z,68.40
2022-12-13T08:08:11.939Z,68.30
2022-12-13T08:10:40.360Z,68.30
2022-12-13T08:13:08.553Z,68.30
2022-12-13T08:15:36.791Z,68.20
2022-12-13T08:18:05.242Z,68.10
2022-12-13T08:20:33.750Z,68.20
2022-12-13T08:23:02.849Z,68.20
2022-12-13T08:25:33.038Z,68.10
2022-12-13T08:28:01.996Z,68.20
2022-12-13T08:30:31.994Z,68.20
2022-12-13T08:33:05.039Z,68.10
2022-12-13T08:35:34.993Z,68.10
2022-12-13T08:38:04.198Z,68.00
2022-12-13T08:40:34.890Z,68.10
2022-12-13T08:43:03.623Z,68.00
2022-12-13T08:45:34.245Z,68.10
2022-12-13T08:48:03.485Z,68.00
2022-12-13T08:50:32.241Z,68.00
2022-12-13T08:53:00.502Z,68.00
2022-12-13T08:55:31.824Z,68.00
2022-12-13T08:58:08.465Z,67.90
2022-12-13T09:00:37.464Z,67.90
2022-12-13T09:03:09.755Z,67.90
2022-12-13T09:05:38.754Z,67.90
2022-12-13T09:08:23.476Z,67.90
2022-12-13T09:11:00.158Z,67.90
2022-12-13T09:13:32.210Z,67.90
2022-12-13T09:16:04.905Z,67.80
2022-12-13T09:18:42.049Z,67.80
2022-12-13T09:21:12.118Z,67.60
2022-12-13T09:23:45.720Z,67.60
2022-12-13T09:26:15.821Z,67.60
2022-12-13T09:28:45.485Z,67.50
2022-12-13T09:31:15.455Z,67.50
2022-12-13T09:33:44.468Z,67.50
2022-12-13T09:36:14.841Z,67.40
2022-12-13T09:38:43.330Z,67.40
2022-12-13T09:41:20.180Z,67.40
2022-12-13T09:44:00.862Z,67.30
2022-12-13T09:46:34.141Z,67.20
2022-12-13T09:49:05.721Z,67.10
2022-12-13T09:51:47.317Z,67.10
2022-12-13T09:54:22.790Z,67.10
2022-12-13T09:56:52.524Z,67.00
2022-12-13T09:59:28.244Z,66.90
2022-12-13T10:01:56.970Z,66.90
2022-12-13T10:04:25.304Z,66.80
2022-12-13T10:06:55.111Z,66.90
2022-12-13T10:09:23.970Z,66.80
2022-12-13T10:11:54.484Z,66.90
2022-12-13T10:14:28.853Z,66.80
2022-12-13T10:16:59.187Z,66.80
2022-12-13T10:19:35.665Z,66.80
2022-12-13T10:22:07.501Z,66.70
2022-12-13T10:24:50.902Z,66.70
2022-12-13T10:27:21.235Z,66.70
2022-12-13T10:30:06.589Z,66.80
2022-12-13T10:32:43.674Z,66.70
2022-12-13T10:35:24.443Z,66.70
2022-12-13T10:37:53.084Z,66.60
2022-12-13T10:40:33.556Z,66.60
2022-12-13T10:43:12.739Z,66.60
2022-12-13T10:45:42.664Z,66.60
2022-12-13T10:48:22.286Z,66.60
2022-12-13T10:51:01.756Z,66.60
2022-12-13T10:53:33.146Z,66.60
2022-12-13T10:56:02.776Z,66.70
2022-12-13T10:58:40.475Z,66.80
2022-12-13T11:01:22.617Z,66.60
2022-12-13T11:04:02.081Z,66.50
2022-12-13T11:06:43.689Z,66.50
2022-12-13T11:09:22.919Z,66.40
2022-12-13T11:11:58.125Z,66.40
2022-12-13T11:14:31.907Z,66.40
2022-12-13T11:17:09.124Z,66.40
2022-12-13T11:19:41.119Z,66.30
2022-12-13T11:22:11.114Z,66.30
2022-12-13T11:24:42.326Z,66.30
2022-12-13T11:27:33.332Z,66.30
2022-12-13T11:30:13.897Z,66.20
2022-12-13T11:33:10.031Z,66.10
2022-12-13T11:35:59.605Z,66.20
2022-12-13T11:38:35.562Z,66.10
2022-12-13T11:41:32.234Z,66.00
2022-12-13T11:44:10.308Z,66.00
2022-12-13T11:46:42.866Z,66.00
2022-12-13T11:49:18.075Z,65.90
2022-12-13T11:52:03.960Z,65.90
2022-12-13T11:54:41.186Z,65.80
2022-12-13T11:57:19.252Z,65.80
2022-12-13T11:59:50.090Z,65.80
2022-12-13T12:02:26.964Z,65.70
2022-12-13T12:05:01.056Z,65.70
2022-12-13T12:07:35.112Z,65.70
2022-12-13T12:10:20.003Z,65.60
2022-12-13T12:12:53.305Z,65.50
2022-12-13T12:15:26.681Z,65.40
2022-12-13T12:17:56.144Z,65.40
2022-12-13T12:20:43.737Z,65.30
2022-12-13T12:23:20.921Z,65.30
2022-12-13T12:25:55.083Z,65.30
2022-12-13T12:28:35.560Z,65.20
2022-12-13T12:31:20.587Z,65.20
2022-12-13T12:34:00.725Z,65.20
2022-12-13T12:36:47.275Z,65.10
2022-12-13T12:39:44.687Z,65.10
2022-12-13T12:42:56.479Z,65.00
2022-12-13T12:46:01.843Z,64.90
2022-12-13T12:49:01.679Z,64.90
2022-12-13T12:51:39.858Z,64.90
2022-12-13T12:54:31.957Z,64.90
2022-12-13T12:57:10.985Z,65.00
2022-12-13T12:59:49.467Z,65.00
2022-12-13T13:02:23.222Z,64.90
2022-12-13T13:05:03.634Z,64.90
2022-12-13T13:07:39.869Z,64.80
2022-12-13T13:10:16.290Z,64.90
2022-12-13T13:13:11.944Z,64.80
2022-12-13T13:16:02.979Z,64.80
2022-12-13T13:19:01.148Z,64.70
2022-12-13T13:21:48.718Z,64.60
2022-12-13T13:24:21.997Z,64.60
2022-12-13T13:26:52.615Z,64.60
2022-12-13T13:29:38.950Z,64.60
2022-12-13T13:32:28.507Z,64.50
2022-12-13T13:35:53.405Z,64.50
2022-12-13T13:38:50.889Z,64.40
2022-12-13T13:41:41.606Z,64.40
2022-12-13T13:44:43.169Z,64.50
2022-12-13T13:47:12.401Z,64.50
2022-12-13T13:49:59.950Z,64.40
2022-12-13T13:52:38.182Z,64.40
2022-12-13T13:55:45.557Z,64.40
2022-12-13T13:58:44.949Z,64.30
2022-12-13T14:01:41.710Z,64.30
2022-12-13T14:04:46.260Z,64.30
2022-12-13T14:07:48.366Z,64.30
2022-12-13T14:16:05.587Z,64.20
2022-12-13T14:19:20.502Z,64.20
2022-12-13T14:21:59.572Z,64.10
2022-12-13T14:24:39.713Z,64.10
2022-12-13T14:27:24.637Z,64.70
2022-12-13T14:29:58.114Z,64.10
2022-12-13T14:32:30.485Z,64.00
2022-12-13T14:35:25.442Z,64.00
2022-12-13T14:37:57.893Z,64.00
2022-12-13T14:40:30.013Z,64.00
2022-12-13T14:42:58.445Z,64.00
2022-12-13T14:45:29.575Z,63.90
2022-12-13T14:48:01.498Z,63.90
2022-12-13T14:50:33.227Z,63.80
2022-12-13T14:53:03.766Z,63.90
2022-12-13T14:55:33.771Z,63.90
2022-12-13T14:58:04.312Z,63.80
2022-12-13T15:00:35.733Z,63.90
2022-12-13T15:03:07.363Z,63.80
2022-12-13T15:05:44.323Z,63.80
2022-12-13T15:08:18.943Z,63.80
2022-12-13T15:10:49.416Z,63.80
2022-12-13T15:13:29.374Z,63.70
2022-12-13T15:16:01.355Z,63.80
2022-12-13T15:18:32.957Z,63.80
2022-12-13T15:21:01.266Z,63.80
2022-12-13T15:23:33.917Z,63.80
2022-12-13T15:26:04.466Z,63.70
2022-12-13T15:28:35.674Z,63.70
2022-12-13T15:31:07.201Z,63.80
2022-12-13T15:33:44.024Z,63.80
2022-12-13T15:36:19.326Z,63.70
2022-12-13T15:38:50.122Z,63.70
2022-12-13T15:41:20.010Z,63.70
2022-12-13T15:43:51.842Z,63.80
2022-12-13T15:46:27.224Z,63.80
2022-12-13T15:48:58.638Z,63.80
2022-12-13T15:51:30.114Z,63.90
2022-12-13T15:54:08.631Z,63.90
2022-12-13T15:56:39.338Z,63.80
2022-12-13T15:59:25.309Z,63.70
2022-12-13T16:01:58.502Z,63.70
2022-12-13T16:04:30.410Z,63.70
2022-12-13T16:06:59.432Z,63.60
2022-12-13T16:09:38.216Z,63.60
2022-12-13T16:12:08.106Z,63.60
2022-12-13T16:14:49.773Z,63.60
2022-12-13T16:17:25.395Z,63.60
2022-12-13T16:19:57.327Z,63.50
2022-12-13T16:22:25.994Z,63.40
2022-12-13T16:24:56.488Z,63.40
2022-12-13T16:27:25.113Z,63.40
2022-12-13T16:29:53.527Z,63.30
2022-12-13T16:32:22.381Z,63.30
2022-12-13T16:34:50.934Z,63.30
2022-12-13T16:37:27.525Z,63.30
2022-12-13T16:39:56.032Z,63.20
2022-12-13T16:42:26.304Z,63.20
2022-12-13T16:45:40.564Z,63.20
2022-12-13T16:47:49.100Z,63.10
2022-12-13T16:50:20.114Z,63.30
2022-12-13T16:52:49.857Z,63.90
2022-12-13T16:55:18.594Z,64.30
2022-12-13T16:57:57.668Z,64.30
2022-12-13T17:00:26.840Z,64.10
2022-12-13T17:02:55.176Z,63.90
2022-12-13T17:05:24.485Z,63.70
2022-12-13T17:07:55.002Z,63.50
2022-12-13T17:10:23.500Z,63.50
2022-12-13T17:12:51.874Z,63.40
2022-12-13T17:15:20.506Z,63.30
2022-12-13T17:17:49.260Z,63.10
2022-12-13T17:20:19.045Z,63.00
2022-12-13T17:22:47.557Z,62.90
2022-12-13T17:25:17.306Z,62.90
2022-12-13T17:27:46.107Z,62.90
2022-12-13T17:30:17.048Z,62.80
2022-12-13T17:32:45.261Z,62.70
2022-12-13T17:35:18.085Z,62.60
2022-12-13T17:37:46.951Z,62.60
2022-12-13T17:40:18.273Z,62.50
2022-12-13T17:42:49.406Z,62.50
2022-12-13T17:45:19.534Z,62.40
2022-12-13T17:47:48.066Z,62.40
2022-12-13T17:50:16.567Z,62.40
2022-12-13T17:52:44.904Z,62.30
2022-12-13T17:55:18.114Z,62.20
2022-12-13T17:57:48.255Z,62.20
2022-12-13T18:00:17.567Z,62.10
2022-12-13T18:02:55.603Z,62.10
2022-12-13T18:05:26.063Z,62.10
2022-12-13T18:07:54.410Z,62.00
2022-12-13T18:10:29.324Z,62.00
2022-12-13T18:12:59.827Z,61.90
2022-12-13T18:15:28.619Z,61.90
2022-12-13T18:18:11.191Z,61.80
2022-12-13T18:20:40.427Z,61.90
2022-12-13T18:23:08.780Z,61.80
2022-12-13T18:25:37.866Z,61.80
2022-12-13T18:28:09.447Z,61.80
2022-12-13T18:30:38.028Z,61.80
2022-12-13T18:33:06.670Z,61.80
2022-12-13T18:35:35.091Z,61.60
2022-12-13T18:38:03.354Z,61.60
2022-12-13T18:40:32.514Z,61.60
2022-12-13T18:43:00.787Z,61.60
2022-12-13T18:45:30.390Z,61.60
2022-12-13T18:47:58.681Z,61.60
2022-12-13T18:50:26.952Z,61.60
2022-12-13T18:52:55.111Z,61.50
2022-12-13T18:55:23.544Z,61.50
2022-12-13T18:57:52.685Z,61.50
2022-12-13T19:00:21.409Z,61.50
2022-12-13T19:02:51.093Z,61.50
2022-12-13T19:05:19.539Z,61.40
2022-12-13T19:07:47.774Z,61.40
2022-12-13T19:10:16.063Z,62.10
2022-12-13T19:12:44.453Z,61.40
2022-12-13T19:15:13.260Z,61.50
2022-12-13T19:17:41.474Z,61.40
2022-12-13T19:20:12.183Z,61.50
2022-12-13T19:22:40.666Z,61.40
2022-12-13T19:25:10.372Z,61.40
2022-12-13T19:27:38.727Z,61.40
2022-12-13T19:30:08.640Z,61.40
2022-12-13T19:32:36.971Z,61.40
2022-12-13T19:35:05.625Z,61.30
2022-12-13T19:37:37.928Z,61.30
2022-12-13T19:40:07.048Z,61.30
2022-12-13T19:42:35.362Z,61.30
2022-12-13T19:45:03.871Z,61.30
2022-12-13T19:47:32.459Z,61.30
2022-12-13T19:50:00.821Z,61.30
2022-12-13T19:52:29.207Z,61.30
2022-12-13T19:54:59.551Z,61.30
2022-12-13T19:57:28.103Z,61.20
2022-12-13T19:59:56.744Z,61.30
2022-12-13T20:02:25.471Z,61.20
2022-12-13T20:04:54.141Z,61.20
2022-12-13T20:07:23.910Z,61.30
2022-12-13T20:09:52.221Z,61.30
2022-12-13T20:12:22.358Z,61.30
2022-12-13T20:14:50.669Z,61.20
2022-12-13T20:17:19.540Z,61.20
2022-12-13T20:19:48.128Z,61.20
2022-12-13T20:22:16.954Z,61.20
2022-12-13T20:24:45.566Z,61.30
2022-12-13T20:27:16.264Z,61.20
2022-12-13T20:29:48.312Z,61.30
2022-12-13T20:32:17.423Z,61.20
2022-12-13T20:34:48.193Z,61.20
2022-12-13T20:37:18.572Z,61.20
2022-12-13T20:39:46.960Z,61.20
2022-12-13T20:42:15.404Z,61.20
2022-12-13T20:44:45.237Z,61.20
2022-12-13T20:47:14.293Z,61.20
2022-12-13T20:49:42.836Z,61.20
2022-12-13T20:52:17.085Z,61.20
2022-12-13T20:54:45.647Z,61.20
2022-12-13T20:57:14.034Z,61.20
2022-12-13T20:59:43.085Z,61.20
2022-12-13T21:02:13.996Z,61.20
2022-12-13T21:04:42.855Z,61.20
2022-12-13T21:07:11.684Z,61.80
2022-12-13T21:09:40.318Z,61.20
2022-12-13T21:12:09.077Z,61.20
2022-12-13T21:14:38.383Z,61.20
2022-12-13T21:17:09.760Z,61.20
2022-12-13T21:19:41.046Z,61.20
2022-12-13T21:22:09.784Z,61.20
2022-12-13T21:24:38.280Z,61.30
2022-12-13T21:27:06.545Z,61.20
2022-12-13T21:29:34.929Z,61.20
2022-12-13T21:32:03.527Z,61.20
2022-12-13T21:34:33.129Z,61.20
2022-12-13T21:37:03.025Z,61.20
2022-12-13T21:39:31.527Z,61.20
2022-12-13T21:42:00.079Z,61.20
2022-12-13T21:44:28.546Z,61.20
2022-12-13T21:47:13.166Z,61.20
2022-12-13T21:49:42.125Z,61.30
2022-12-13T21:52:18.660Z,61.20
2022-12-13T21:54:46.849Z,61.20
2022-12-13T21:57:32.521Z,61.20
2022-12-13T22:00:00.827Z,61.30
2022-12-13T22:02:29.192Z,61.20
2022-12-13T22:04:58.518Z,61.20
2022-12-13T22:07:29.873Z,61.30
2022-12-13T22:09:59.609Z,61.30
2022-12-13T22:12:33.162Z,61.30
2022-12-13T22:15:01.493Z,61.20
2022-12-13T22:17:35.576Z,61.20
2022-12-13T22:20:05.648Z,61.20
2022-12-13T22:22:35.807Z,61.20
2022-12-13T22:25:04.462Z,61.20
2022-12-13T22:27:32.788Z,61.30
2022-12-13T22:30:00.978Z,61.30
2022-12-13T22:32:31.468Z,61.30
2022-12-13T22:35:00.152Z,61.30
2022-12-13T22:37:28.425Z,61.20
2022-12-13T22:39:58.187Z,61.30
2022-12-13T22:42:26.387Z,61.20
2022-12-13T22:44:54.632Z,61.20
2022-12-13T22:47:22.851Z,61.30
2022-12-13T22:49:51.359Z,61.20
2022-12-13T22:52:19.835Z,61.30
2022-12-13T22:54:48.027Z,61.30
2022-12-13T22:57:17.598Z,61.30
2022-12-13T22:59:45.837Z,61.30
2022-12-13T23:02:14.335Z,61.30
2022-12-13T23:04:42.631Z,61.30
2022-12-13T23:07:10.923Z,61.30
2022-12-13T23:09:39.201Z,61.30
2022-12-13T23:12:25.088Z,61.30
2022-12-13T23:14:54.954Z,61.30
2022-12-13T23:17:23.184Z,61.40
2022-12-13T23:19:53.117Z,61.60
2022-12-13T23:22:22.794Z,61.30
2022-12-13T23:24:51.303Z,61.30
2022-12-13T23:27:21.491Z,61.30
2022-12-13T23:29:49.724Z,61.40
2022-12-13T23:32:20.532Z,61.40
2022-12-13T23:34:48.949Z,61.40
2022-12-13T23:37:17.575Z,61.40
2022-12-13T23:39:45.927Z,61.40
2022-12-13T23:42:14.408Z,61.40
2022-12-13T23:44:43.714Z,61.50
2022-12-13T23:47:12.167Z,61.50
2022-12-13T23:49:42.068Z,61.50
2022-12-13T23:52:10.690Z,61.50
2022-12-13T23:54:39.118Z,61.50
2022-12-13T23:57:07.624Z,61.50
2022-12-13T23:59:36.083Z,61.50
